sensor_id;sensor_type;location;lat;lon;timestamp;P1;durP1;ratioP1;P2;durP2;ratioP2
46086;SDS011;31824;49.648;8.640;2023-08-21T00:00:38;4.50;;;2.03;;
46086;SDS011;31824;49.648;8.640;2023-08-21T00:03:40;3.38;;;1.83;;
46086;SDS011;31824;49.648;8.640;2023-08-21T00:06:43;2.90;;;1.40;;
46086;SDS011;31824;49.648;8.640;2023-08-21T00:09:46;4.25;;;1.92;;
46086;SDS011;31824;49.648;8.640;2023-08-21T00:12:47;5.43;;;2.30;;
46086;SDS011;31824;49.648;8.640;2023-08-21T00:15:49;4.60;;;1.98;;
46086;SDS011;31824;49.648;8.640;2023-08-21T00:18:51;4.10;;;1.70;;
46086;SDS011;31824;49.648;8.640;2023-08-21T00:21:54;3.67;;;1.63;;
46086;SDS011;31824;49.648;8.640;2023-08-21T00:24:56;3.95;;;1.60;;
46086;SDS011;31824;49.648;8.640;2023-08-21T00:27:57;3.78;;;1.55;;
46086;SDS011;31824;49.648;8.640;2023-08-21T00:31:01;4.57;;;1.73;;
46086;SDS011;31824;49.648;8.640;2023-08-21T00:34:03;3.63;;;1.77;;
46086;SDS011;31824;49.648;8.640;2023-08-21T00:37:07;4.78;;;1.55;;
46086;SDS011;31824;49.648;8.640;2023-08-21T00:40:09;4.53;;;1.85;;
46086;SDS011;31824;49.648;8.640;2023-08-21T00:43:10;4.72;;;2.10;;
46086;SDS011;31824;49.648;8.640;2023-08-21T00:46:12;3.33;;;1.60;;
46086;SDS011;31824;49.648;8.640;2023-08-21T00:49:14;3.70;;;1.95;;
46086;SDS011;31824;49.648;8.640;2023-08-21T00:52:17;3.80;;;1.85;;
46086;SDS011;31824;49.648;8.640;2023-08-21T00:55:20;3.20;;;1.65;;
46086;SDS011;31824;49.648;8.640;2023-08-21T00:58:21;3.65;;;1.80;;
46086;SDS011;31824;49.648;8.640;2023-08-21T01:01:24;4.88;;;1.85;;
46086;SDS011;31824;49.648;8.640;2023-08-21T01:04:27;3.60;;;1.65;;
46086;SDS011;31824;49.648;8.640;2023-08-21T01:07:30;4.15;;;1.67;;
46086;SDS011;31824;49.648;8.640;2023-08-21T01:10:39;3.67;;;1.83;;
46086;SDS011;31824;49.648;8.640;2023-08-21T01:13:47;5.05;;;2.25;;
46086;SDS011;31824;49.648;8.640;2023-08-21T01:16:59;4.55;;;2.13;;
46086;SDS011;31824;49.648;8.640;2023-08-21T01:20:01;4.82;;;1.70;;
46086;SDS011;31824;49.648;8.640;2023-08-21T01:23:05;5.13;;;1.85;;
46086;SDS011;31824;49.648;8.640;2023-08-21T01:26:08;3.65;;;2.20;;
46086;SDS011;31824;49.648;8.640;2023-08-21T01:29:10;3.58;;;1.65;;
46086;SDS011;31824;49.648;8.640;2023-08-21T01:32:14;4.50;;;1.95;;
46086;SDS011;31824;49.648;8.640;2023-08-21T01:35:26;3.50;;;1.80;;
46086;SDS011;31824;49.648;8.640;2023-08-21T01:38:32;5.38;;;2.10;;
46086;SDS011;31824;49.648;8.640;2023-08-21T01:41:35;4.75;;;1.63;;
46086;SDS011;31824;49.648;8.640;2023-08-21T01:44:37;5.47;;;1.90;;
46086;SDS011;31824;49.648;8.640;2023-08-21T01:47:39;4.50;;;1.88;;
46086;SDS011;31824;49.648;8.640;2023-08-21T01:50:42;3.70;;;1.70;;
46086;SDS011;31824;49.648;8.640;2023-08-21T01:53:44;5.18;;;2.00;;
46086;SDS011;31824;49.648;8.640;2023-08-21T01:56:47;4.63;;;2.13;;
46086;SDS011;31824;49.648;8.640;2023-08-21T01:59:49;3.72;;;1.77;;
46086;SDS011;31824;49.648;8.640;2023-08-21T02:02:51;6.65;;;1.80;;
46086;SDS011;31824;49.648;8.640;2023-08-21T02:05:55;3.83;;;1.88;;
46086;SDS011;31824;49.648;8.640;2023-08-21T02:08:58;4.15;;;1.77;;
46086;SDS011;31824;49.648;8.640;2023-08-21T02:12:01;4.35;;;1.98;;
46086;SDS011;31824;49.648;8.640;2023-08-21T02:15:03;4.10;;;1.98;;
46086;SDS011;31824;49.648;8.640;2023-08-21T02:18:06;4.95;;;1.90;;
46086;SDS011;31824;49.648;8.640;2023-08-21T02:21:08;4.38;;;2.10;;
46086;SDS011;31824;49.648;8.640;2023-08-21T02:24:10;4.45;;;2.03;;
46086;SDS011;31824;49.648;8.640;2023-08-21T02:27:14;4.30;;;2.00;;
46086;SDS011;31824;49.648;8.640;2023-08-21T02:30:16;6.13;;;2.10;;
46086;SDS011;31824;49.648;8.640;2023-08-21T02:33:20;4.15;;;2.15;;
46086;SDS011;31824;49.648;8.640;2023-08-21T02:36:22;3.50;;;1.90;;
46086;SDS011;31824;49.648;8.640;2023-08-21T02:39:25;5.10;;;2.10;;
46086;SDS011;31824;49.648;8.640;2023-08-21T02:42:28;4.72;;;1.95;;
46086;SDS011;31824;49.648;8.640;2023-08-21T02:45:30;4.68;;;1.83;;
46086;SDS011;31824;49.648;8.640;2023-08-21T02:48:31;5.03;;;1.95;;
46086;SDS011;31824;49.648;8.640;2023-08-21T02:51:35;5.20;;;2.20;;
46086;SDS011;31824;49.648;8.640;2023-08-21T02:54:38;3.67;;;2.10;;
46086;SDS011;31824;49.648;8.640;2023-08-21T02:57:41;3.85;;;1.95;;
46086;SDS011;31824;49.648;8.640;2023-08-21T03:00:43;4.35;;;1.90;;
46086;SDS011;31824;49.648;8.640;2023-08-21T03:03:44;4.85;;;2.00;;
46086;SDS011;31824;49.648;8.640;2023-08-21T03:06:46;4.45;;;2.15;;
46086;SDS011;31824;49.648;8.640;2023-08-21T03:09:48;4.70;;;2.00;;
46086;SDS011;31824;49.648;8.640;2023-08-21T03:12:52;5.25;;;2.55;;
46086;SDS011;31824;49.648;8.640;2023-08-21T03:15:54;4.72;;;2.10;;
46086;SDS011;31824;49.648;8.640;2023-08-21T03:18:57;4.30;;;2.05;;
46086;SDS011;31824;49.648;8.640;2023-08-21T03:22:01;4.10;;;2.13;;
46086;SDS011;31824;49.648;8.640;2023-08-21T03:25:03;5.20;;;2.38;;
46086;SDS011;31824;49.648;8.640;2023-08-21T03:28:07;4.00;;;2.13;;
46086;SDS011;31824;49.648;8.640;2023-08-21T03:31:09;4.95;;;2.58;;
46086;SDS011;31824;49.648;8.640;2023-08-21T03:34:10;6.32;;;2.30;;
46086;SDS011;31824;49.648;8.640;2023-08-21T03:37:12;3.83;;;1.80;;
46086;SDS011;31824;49.648;8.640;2023-08-21T03:40:15;10.90;;;2.40;;
46086;SDS011;31824;49.648;8.640;2023-08-21T03:43:18;6.40;;;2.20;;
46086;SDS011;31824;49.648;8.640;2023-08-21T03:46:20;4.47;;;2.20;;
46086;SDS011;31824;49.648;8.640;2023-08-21T03:49:22;7.85;;;2.47;;
46086;SDS011;31824;49.648;8.640;2023-08-21T03:52:24;4.55;;;2.28;;
46086;SDS011;31824;49.648;8.640;2023-08-21T03:55:25;3.92;;;2.15;;
46086;SDS011;31824;49.648;8.640;2023-08-21T03:58:29;6.10;;;2.40;;
46086;SDS011;31824;49.648;8.640;2023-08-21T04:01:31;7.15;;;2.67;;
46086;SDS011;31824;49.648;8.640;2023-08-21T04:04:33;9.57;;;3.47;;
46086;SDS011;31824;49.648;8.640;2023-08-21T04:07:35;14.02;;;4.43;;
46086;SDS011;31824;49.648;8.640;2023-08-21T04:10:36;5.45;;;2.50;;
46086;SDS011;31824;49.648;8.640;2023-08-21T04:13:41;4.20;;;2.10;;
46086;SDS011;31824;49.648;8.640;2023-08-21T04:16:44;4.50;;;2.00;;
46086;SDS011;31824;49.648;8.640;2023-08-21T04:19:46;4.03;;;2.00;;
46086;SDS011;31824;49.648;8.640;2023-08-21T04:22:48;4.75;;;2.17;;
46086;SDS011;31824;49.648;8.640;2023-08-21T04:25:49;4.85;;;2.25;;
46086;SDS011;31824;49.648;8.640;2023-08-21T04:28:52;4.50;;;2.22;;
46086;SDS011;31824;49.648;8.640;2023-08-21T04:31:54;4.72;;;2.47;;
46086;SDS011;31824;49.648;8.640;2023-08-21T04:34:56;7.25;;;2.35;;
46086;SDS011;31824;49.648;8.640;2023-08-21T04:37:58;4.25;;;2.47;;
46086;SDS011;31824;49.648;8.640;2023-08-21T04:41:05;4.30;;;2.30;;
46086;SDS011;31824;49.648;8.640;2023-08-21T04:44:10;5.20;;;2.20;;
46086;SDS011;31824;49.648;8.640;2023-08-21T04:47:19;5.20;;;2.17;;
46086;SDS011;31824;49.648;8.640;2023-08-21T04:50:22;5.40;;;2.15;;
46086;SDS011;31824;49.648;8.640;2023-08-21T04:53:24;4.93;;;2.35;;
46086;SDS011;31824;49.648;8.640;2023-08-21T04:56:27;5.38;;;2.55;;
46086;SDS011;31824;49.648;8.640;2023-08-21T04:59:31;5.90;;;2.40;;
46086;SDS011;31824;49.648;8.640;2023-08-21T05:02:33;5.03;;;2.35;;
46086;SDS011;31824;49.648;8.640;2023-08-21T05:05:36;4.55;;;2.30;;
46086;SDS011;31824;49.648;8.640;2023-08-21T05:08:38;7.70;;;2.92;;
46086;SDS011;31824;49.648;8.640;2023-08-21T05:11:41;4.07;;;2.40;;
46086;SDS011;31824;49.648;8.640;2023-08-21T05:14:46;7.63;;;2.90;;
46086;SDS011;31824;49.648;8.640;2023-08-21T05:17:47;6.00;;;2.60;;
46086;SDS011;31824;49.648;8.640;2023-08-21T05:20:49;3.88;;;2.45;;
46086;SDS011;31824;49.648;8.640;2023-08-21T05:23:52;5.68;;;2.53;;
46086;SDS011;31824;49.648;8.640;2023-08-21T05:26:54;6.72;;;2.65;;
46086;SDS011;31824;49.648;8.640;2023-08-21T05:29:57;5.35;;;2.63;;
46086;SDS011;31824;49.648;8.640;2023-08-21T05:32:59;7.50;;;2.70;;
46086;SDS011;31824;49.648;8.640;2023-08-21T05:36:00;5.15;;;2.45;;
46086;SDS011;31824;49.648;8.640;2023-08-21T05:39:02;4.82;;;2.70;;
46086;SDS011;31824;49.648;8.640;2023-08-21T05:42:08;6.05;;;2.40;;
46086;SDS011;31824;49.648;8.640;2023-08-21T05:45:12;9.27;;;2.65;;
46086;SDS011;31824;49.648;8.640;2023-08-21T05:48:14;6.47;;;2.40;;
46086;SDS011;31824;49.648;8.640;2023-08-21T05:51:16;4.90;;;2.33;;
46086;SDS011;31824;49.648;8.640;2023-08-21T05:54:18;4.90;;;2.42;;
46086;SDS011;31824;49.648;8.640;2023-08-21T05:57:21;6.07;;;2.72;;
46086;SDS011;31824;49.648;8.640;2023-08-21T06:00:24;5.70;;;2.60;;
46086;SDS011;31824;49.648;8.640;2023-08-21T06:03:25;6.38;;;3.13;;
46086;SDS011;31824;49.648;8.640;2023-08-21T06:07:03;6.20;;;2.80;;
46086;SDS011;31824;49.648;8.640;2023-08-21T06:10:06;7.50;;;3.05;;
46086;SDS011;31824;49.648;8.640;2023-08-21T06:13:10;6.03;;;3.25;;
46086;SDS011;31824;49.648;8.640;2023-08-21T06:16:13;6.75;;;2.95;;
46086;SDS011;31824;49.648;8.640;2023-08-21T06:19:16;6.22;;;3.03;;
46086;SDS011;31824;49.648;8.640;2023-08-21T06:22:18;9.23;;;3.38;;
46086;SDS011;31824;49.648;8.640;2023-08-21T06:25:20;7.05;;;3.35;;
46086;SDS011;31824;49.648;8.640;2023-08-21T06:28:22;7.47;;;3.50;;
46086;SDS011;31824;49.648;8.640;2023-08-21T06:31:25;7.03;;;3.22;;
46086;SDS011;31824;49.648;8.640;2023-08-21T06:34:28;8.57;;;3.72;;
46086;SDS011;31824;49.648;8.640;2023-08-21T06:37:30;11.40;;;3.75;;
46086;SDS011;31824;49.648;8.640;2023-08-21T06:40:32;5.38;;;3.00;;
46086;SDS011;31824;49.648;8.640;2023-08-21T06:43:34;7.32;;;3.38;;
46086;SDS011;31824;49.648;8.640;2023-08-21T06:46:37;6.25;;;3.50;;
46086;SDS011;31824;49.648;8.640;2023-08-21T06:49:38;6.28;;;3.33;;
46086;SDS011;31824;49.648;8.640;2023-08-21T06:52:40;7.68;;;3.08;;
46086;SDS011;31824;49.648;8.640;2023-08-21T06:55:44;5.75;;;3.15;;
46086;SDS011;31824;49.648;8.640;2023-08-21T06:58:46;6.38;;;3.13;;
46086;SDS011;31824;49.648;8.640;2023-08-21T07:01:49;5.38;;;3.35;;
46086;SDS011;31824;49.648;8.640;2023-08-21T07:04:52;8.43;;;3.60;;
46086;SDS011;31824;49.648;8.640;2023-08-21T07:07:54;6.40;;;3.28;;
46086;SDS011;31824;49.648;8.640;2023-08-21T07:10:56;5.97;;;3.17;;
46086;SDS011;31824;49.648;8.640;2023-08-21T07:13:58;5.75;;;3.10;;
46086;SDS011;31824;49.648;8.640;2023-08-21T07:17:01;6.25;;;3.78;;
46086;SDS011;31824;49.648;8.640;2023-08-21T07:20:03;6.80;;;3.58;;
46086;SDS011;31824;49.648;8.640;2023-08-21T07:23:06;7.00;;;3.30;;
46086;SDS011;31824;49.648;8.640;2023-08-21T07:26:08;5.45;;;3.13;;
46086;SDS011;31824;49.648;8.640;2023-08-21T07:29:10;7.95;;;3.13;;
46086;SDS011;31824;49.648;8.640;2023-08-21T07:32:13;8.15;;;2.72;;
46086;SDS011;31824;49.648;8.640;2023-08-21T07:35:15;5.38;;;2.97;;
46086;SDS011;31824;49.648;8.640;2023-08-21T07:38:17;4.88;;;3.05;;
46086;SDS011;31824;49.648;8.640;2023-08-21T07:41:19;10.23;;;3.90;;
46086;SDS011;31824;49.648;8.640;2023-08-21T07:44:21;5.95;;;3.50;;
46086;SDS011;31824;49.648;8.640;2023-08-21T07:47:24;6.07;;;3.10;;
46086;SDS011;31824;49.648;8.640;2023-08-21T07:50:28;5.88;;;3.30;;
46086;SDS011;31824;49.648;8.640;2023-08-21T07:53:45;5.97;;;3.30;;
46086;SDS011;31824;49.648;8.640;2023-08-21T07:56:47;7.55;;;3.60;;
46086;SDS011;31824;49.648;8.640;2023-08-21T07:59:48;7.38;;;3.30;;
46086;SDS011;31824;49.648;8.640;2023-08-21T08:02:52;5.97;;;3.47;;
46086;SDS011;31824;49.648;8.640;2023-08-21T08:05:53;6.10;;;3.38;;
46086;SDS011;31824;49.648;8.640;2023-08-21T08:08:56;8.38;;;3.30;;
46086;SDS011;31824;49.648;8.640;2023-08-21T08:11:58;8.00;;;3.47;;
46086;SDS011;31824;49.648;8.640;2023-08-21T08:15:00;5.80;;;3.25;;
46086;SDS011;31824;49.648;8.640;2023-08-21T08:18:03;6.80;;;3.22;;
46086;SDS011;31824;49.648;8.640;2023-08-21T08:21:07;7.88;;;3.35;;
46086;SDS011;31824;49.648;8.640;2023-08-21T08:24:08;5.75;;;3.17;;
46086;SDS011;31824;49.648;8.640;2023-08-21T08:27:11;10.02;;;3.53;;
46086;SDS011;31824;49.648;8.640;2023-08-21T08:30:14;6.80;;;3.35;;
46086;SDS011;31824;49.648;8.640;2023-08-21T08:33:18;7.75;;;3.28;;
46086;SDS011;31824;49.648;8.640;2023-08-21T08:36:19;9.30;;;3.60;;
46086;SDS011;31824;49.648;8.640;2023-08-21T08:39:21;6.07;;;3.28;;
46086;SDS011;31824;49.648;8.640;2023-08-21T08:42:23;5.47;;;3.15;;
46086;SDS011;31824;49.648;8.640;2023-08-21T08:45:28;5.55;;;3.20;;
46086;SDS011;31824;49.648;8.640;2023-08-21T08:48:33;7.85;;;3.20;;
46086;SDS011;31824;49.648;8.640;2023-08-21T08:51:35;5.18;;;2.97;;
46086;SDS011;31824;49.648;8.640;2023-08-21T08:54:40;7.07;;;3.20;;
46086;SDS011;31824;49.648;8.640;2023-08-21T08:57:42;7.85;;;3.17;;
46086;SDS011;31824;49.648;8.640;2023-08-21T09:00:44;6.20;;;3.35;;
46086;SDS011;31824;49.648;8.640;2023-08-21T09:03:47;6.88;;;3.00;;
46086;SDS011;31824;49.648;8.640;2023-08-21T09:06:51;5.38;;;2.95;;
46086;SDS011;31824;49.648;8.640;2023-08-21T09:09:53;7.57;;;3.67;;
46086;SDS011;31824;49.648;8.640;2023-08-21T09:12:55;6.50;;;3.15;;
46086;SDS011;31824;49.648;8.640;2023-08-21T09:16:00;7.00;;;3.15;;
46086;SDS011;31824;49.648;8.640;2023-08-21T09:19:03;5.75;;;3.17;;
46086;SDS011;31824;49.648;8.640;2023-08-21T09:22:09;5.57;;;3.30;;
46086;SDS011;31824;49.648;8.640;2023-08-21T09:25:11;8.27;;;2.97;;
46086;SDS011;31824;49.648;8.640;2023-08-21T09:28:13;6.63;;;3.35;;
46086;SDS011;31824;49.648;8.640;2023-08-21T09:31:15;5.15;;;2.65;;
46086;SDS011;31824;49.648;8.640;2023-08-21T09:34:21;7.15;;;2.88;;
46086;SDS011;31824;49.648;8.640;2023-08-21T09:37:25;4.32;;;2.80;;
46086;SDS011;31824;49.648;8.640;2023-08-21T09:40:31;5.38;;;2.60;;
46086;SDS011;31824;49.648;8.640;2023-08-21T09:43:32;6.90;;;2.85;;
46086;SDS011;31824;49.648;8.640;2023-08-21T09:49:45;5.40;;;2.47;;
46086;SDS011;31824;49.648;8.640;2023-08-21T09:52:47;6.57;;;2.40;;
46086;SDS011;31824;49.648;8.640;2023-08-21T09:55:50;6.65;;;2.50;;
46086;SDS011;31824;49.648;8.640;2023-08-21T09:58:54;4.68;;;1.95;;
46086;SDS011;31824;49.648;8.640;2023-08-21T10:01:57;4.03;;;2.10;;
46086;SDS011;31824;49.648;8.640;2023-08-21T10:05:01;4.80;;;2.60;;
46086;SDS011;31824;49.648;8.640;2023-08-21T10:08:05;5.00;;;2.47;;
46086;SDS011;31824;49.648;8.640;2023-08-21T10:11:08;5.43;;;2.20;;
46086;SDS011;31824;49.648;8.640;2023-08-21T10:14:11;4.20;;;1.80;;
46086;SDS011;31824;49.648;8.640;2023-08-21T10:17:13;3.35;;;1.90;;
46086;SDS011;31824;49.648;8.640;2023-08-21T10:20:20;3.47;;;1.92;;
46086;SDS011;31824;49.648;8.640;2023-08-21T10:23:24;7.65;;;2.55;;
46086;SDS011;31824;49.648;8.640;2023-08-21T10:29:34;3.35;;;1.85;;
46086;SDS011;31824;49.648;8.640;2023-08-21T10:32:42;4.53;;;1.90;;
46086;SDS011;31824;49.648;8.640;2023-08-21T10:35:47;6.13;;;2.30;;
46086;SDS011;31824;49.648;8.640;2023-08-21T10:38:58;3.78;;;2.00;;
46086;SDS011;31824;49.648;8.640;2023-08-21T10:42:01;3.10;;;1.75;;
46086;SDS011;31824;49.648;8.640;2023-08-21T10:45:09;5.50;;;1.75;;
46086;SDS011;31824;49.648;8.640;2023-08-21T10:48:12;5.63;;;2.13;;
46086;SDS011;31824;49.648;8.640;2023-08-21T10:51:16;4.03;;;1.70;;
46086;SDS011;31824;49.648;8.640;2023-08-21T10:54:18;3.63;;;1.70;;
46086;SDS011;31824;49.648;8.640;2023-08-21T10:57:21;4.07;;;1.60;;
46086;SDS011;31824;49.648;8.640;2023-08-21T11:00:23;2.63;;;1.42;;
46086;SDS011;31824;49.648;8.640;2023-08-21T11:03:25;5.65;;;1.60;;
46086;SDS011;31824;49.648;8.640;2023-08-21T11:06:29;2.45;;;1.17;;
46086;SDS011;31824;49.648;8.640;2023-08-21T11:09:30;3.22;;;1.30;;
46086;SDS011;31824;49.648;8.640;2023-08-21T11:12:32;2.28;;;1.30;;
46086;SDS011;31824;49.648;8.640;2023-08-21T11:15:34;3.28;;;1.40;;
46086;SDS011;31824;49.648;8.640;2023-08-21T11:18:36;4.22;;;1.33;;
46086;SDS011;31824;49.648;8.640;2023-08-21T11:21:40;3.78;;;1.17;;
46086;SDS011;31824;49.648;8.640;2023-08-21T11:24:43;3.20;;;1.55;;
46086;SDS011;31824;49.648;8.640;2023-08-21T11:30:47;1.52;;;0.75;;
46086;SDS011;31824;49.648;8.640;2023-08-21T11:33:49;3.58;;;0.70;;
46086;SDS011;31824;49.648;8.640;2023-08-21T11:36:53;1.30;;;0.40;;
46086;SDS011;31824;49.648;8.640;2023-08-21T11:39:56;1.75;;;0.80;;
46086;SDS011;31824;49.648;8.640;2023-08-21T11:42:59;2.40;;;1.13;;
46086;SDS011;31824;49.648;8.640;2023-08-21T11:46:02;3.17;;;1.42;;
46086;SDS011;31824;49.648;8.640;2023-08-21T11:49:04;2.95;;;1.50;;
46086;SDS011;31824;49.648;8.640;2023-08-21T11:52:07;3.10;;;1.45;;
46086;SDS011;31824;49.648;8.640;2023-08-21T11:55:10;3.50;;;1.42;;
46086;SDS011;31824;49.648;8.640;2023-08-21T11:58:12;2.30;;;1.10;;
46086;SDS011;31824;49.648;8.640;2023-08-21T12:01:17;2.53;;;1.58;;
46086;SDS011;31824;49.648;8.640;2023-08-21T12:04:19;3.88;;;1.45;;
46086;SDS011;31824;49.648;8.640;2023-08-21T12:07:23;2.42;;;1.42;;
46086;SDS011;31824;49.648;8.640;2023-08-21T12:10:25;3.13;;;1.50;;
46086;SDS011;31824;49.648;8.640;2023-08-21T12:13:27;2.65;;;1.58;;
46086;SDS011;31824;49.648;8.640;2023-08-21T12:19:33;4.55;;;1.35;;
46086;SDS011;31824;49.648;8.640;2023-08-21T12:22:36;6.38;;;1.42;;
46086;SDS011;31824;49.648;8.640;2023-08-21T12:25:38;2.97;;;1.23;;
46086;SDS011;31824;49.648;8.640;2023-08-21T12:28:40;4.32;;;1.17;;
46086;SDS011;31824;49.648;8.640;2023-08-21T12:31:42;2.92;;;1.30;;
46086;SDS011;31824;49.648;8.640;2023-08-21T12:34:43;2.88;;;1.25;;
46086;SDS011;31824;49.648;8.640;2023-08-21T12:37:46;2.40;;;1.20;;
46086;SDS011;31824;49.648;8.640;2023-08-21T12:40:48;2.20;;;1.27;;
46086;SDS011;31824;49.648;8.640;2023-08-21T12:43:50;5.85;;;1.50;;
46086;SDS011;31824;49.648;8.640;2023-08-21T12:46:52;2.10;;;1.20;;
46086;SDS011;31824;49.648;8.640;2023-08-21T12:49:54;3.85;;;1.40;;
46086;SDS011;31824;49.648;8.640;2023-08-21T12:52:57;4.35;;;1.17;;
46086;SDS011;31824;49.648;8.640;2023-08-21T12:55:59;2.20;;;1.17;;
46086;SDS011;31824;49.648;8.640;2023-08-21T12:59:02;3.00;;;1.00;;
46086;SDS011;31824;49.648;8.640;2023-08-21T13:02:04;2.92;;;1.30;;
46086;SDS011;31824;49.648;8.640;2023-08-21T13:05:07;3.58;;;0.98;;
46086;SDS011;31824;49.648;8.640;2023-08-21T13:08:10;4.00;;;1.30;;
46086;SDS011;31824;49.648;8.640;2023-08-21T13:11:13;1.75;;;0.98;;
46086;SDS011;31824;49.648;8.640;2023-08-21T13:14:15;7.30;;;1.10;;
46086;SDS011;31824;49.648;8.640;2023-08-21T13:17:17;3.70;;;1.00;;
46086;SDS011;31824;49.648;8.640;2023-08-21T13:20:18;4.85;;;1.20;;
46086;SDS011;31824;49.648;8.640;2023-08-21T13:23:22;1.95;;;1.00;;
46086;SDS011;31824;49.648;8.640;2023-08-21T13:26:24;2.50;;;1.10;;
46086;SDS011;31824;49.648;8.640;2023-08-21T13:29:26;3.35;;;1.00;;
46086;SDS011;31824;49.648;8.640;2023-08-21T13:32:28;4.63;;;1.08;;
46086;SDS011;31824;49.648;8.640;2023-08-21T13:35:30;1.20;;;0.73;;
46086;SDS011;31824;49.648;8.640;2023-08-21T13:38:33;2.10;;;0.90;;
46086;SDS011;31824;49.648;8.640;2023-08-21T13:41:35;2.67;;;0.80;;
46086;SDS011;31824;49.648;8.640;2023-08-21T13:44:37;1.75;;;0.70;;
46086;SDS011;31824;49.648;8.640;2023-08-21T13:47:38;1.48;;;0.70;;
46086;SDS011;31824;49.648;8.640;2023-08-21T13:50:41;0.80;;;0.40;;
46086;SDS011;31824;49.648;8.640;2023-08-21T13:53:44;1.33;;;0.60;;
46086;SDS011;31824;49.648;8.640;2023-08-21T13:56:46;2.25;;;0.52;;
46086;SDS011;31824;49.648;8.640;2023-08-21T13:59:48;1.35;;;0.50;;
46086;SDS011;31824;49.648;8.640;2023-08-21T14:02:50;1.73;;;0.60;;
46086;SDS011;31824;49.648;8.640;2023-08-21T14:05:52;1.08;;;0.60;;
46086;SDS011;31824;49.648;8.640;2023-08-21T14:08:55;1.45;;;0.60;;
46086;SDS011;31824;49.648;8.640;2023-08-21T14:11:56;1.48;;;0.63;;
46086;SDS011;31824;49.648;8.640;2023-08-21T14:14:58;1.27;;;0.50;;
46086;SDS011;31824;49.648;8.640;2023-08-21T14:18:01;1.58;;;0.52;;
46086;SDS011;31824;49.648;8.640;2023-08-21T14:21:04;1.98;;;0.95;;
46086;SDS011;31824;49.648;8.640;2023-08-21T14:24:07;1.73;;;0.90;;
46086;SDS011;31824;49.648;8.640;2023-08-21T14:27:09;3.35;;;0.85;;
46086;SDS011;31824;49.648;8.640;2023-08-21T14:30:11;4.03;;;0.90;;
46086;SDS011;31824;49.648;8.640;2023-08-21T14:33:14;1.80;;;0.90;;
46086;SDS011;31824;49.648;8.640;2023-08-21T14:36:16;2.45;;;0.90;;
46086;SDS011;31824;49.648;8.640;2023-08-21T14:39:19;1.73;;;0.70;;
46086;SDS011;31824;49.648;8.640;2023-08-21T14:42:21;1.42;;;0.60;;
46086;SDS011;31824;49.648;8.640;2023-08-21T14:45:23;2.42;;;0.73;;
46086;SDS011;31824;49.648;8.640;2023-08-21T14:48:25;1.65;;;0.70;;
46086;SDS011;31824;49.648;8.640;2023-08-21T14:51:27;0.90;;;0.60;;
46086;SDS011;31824;49.648;8.640;2023-08-21T14:54:33;1.38;;;0.68;;
46086;SDS011;31824;49.648;8.640;2023-08-21T14:57:36;1.90;;;0.55;;
46086;SDS011;31824;49.648;8.640;2023-08-21T15:00:38;1.90;;;0.70;;
46086;SDS011;31824;49.648;8.640;2023-08-21T15:03:41;1.38;;;0.57;;
46086;SDS011;31824;49.648;8.640;2023-08-21T15:06:44;3.47;;;0.80;;
46086;SDS011;31824;49.648;8.640;2023-08-21T15:09:48;2.58;;;0.75;;
46086;SDS011;31824;49.648;8.640;2023-08-21T15:12:49;1.75;;;0.50;;
46086;SDS011;31824;49.648;8.640;2023-08-21T15:15:51;1.85;;;1.05;;
46086;SDS011;31824;49.648;8.640;2023-08-21T15:18:53;2.13;;;0.80;;
46086;SDS011;31824;49.648;8.640;2023-08-21T15:21:55;1.80;;;0.70;;
46086;SDS011;31824;49.648;8.640;2023-08-21T15:24:58;1.17;;;0.70;;
46086;SDS011;31824;49.648;8.640;2023-08-21T15:28:00;1.80;;;0.60;;
46086;SDS011;31824;49.648;8.640;2023-08-21T15:31:01;2.22;;;0.75;;
46086;SDS011;31824;49.648;8.640;2023-08-21T15:34:04;1.30;;;0.60;;
46086;SDS011;31824;49.648;8.640;2023-08-21T15:37:06;2.13;;;0.70;;
46086;SDS011;31824;49.648;8.640;2023-08-21T15:40:10;2.95;;;0.70;;
46086;SDS011;31824;49.648;8.640;2023-08-21T15:43:13;1.45;;;0.70;;
46086;SDS011;31824;49.648;8.640;2023-08-21T15:49:17;1.55;;;0.68;;
46086;SDS011;31824;49.648;8.640;2023-08-21T15:52:19;1.95;;;0.75;;
46086;SDS011;31824;49.648;8.640;2023-08-21T15:55:22;3.05;;;1.00;;
46086;SDS011;31824;49.648;8.640;2023-08-21T15:58:23;2.35;;;0.68;;
46086;SDS011;31824;49.648;8.640;2023-08-21T16:01:25;1.85;;;0.80;;
46086;SDS011;31824;49.648;8.640;2023-08-21T16:04:27;1.55;;;0.80;;
46086;SDS011;31824;49.648;8.640;2023-08-21T16:07:29;2.05;;;0.95;;
46086;SDS011;31824;49.648;8.640;2023-08-21T16:10:32;1.50;;;0.77;;
46086;SDS011;31824;49.648;8.640;2023-08-21T16:13:34;2.83;;;0.77;;
46086;SDS011;31824;49.648;8.640;2023-08-21T16:16:36;1.77;;;0.65;;
46086;SDS011;31824;49.648;8.640;2023-08-21T16:19:39;2.60;;;0.80;;
46086;SDS011;31824;49.648;8.640;2023-08-21T16:22:40;1.60;;;0.60;;
46086;SDS011;31824;49.648;8.640;2023-08-21T16:25:44;3.05;;;0.77;;
46086;SDS011;31824;49.648;8.640;2023-08-21T16:28:46;2.65;;;1.02;;
46086;SDS011;31824;49.648;8.640;2023-08-21T16:31:48;2.58;;;0.80;;
46086;SDS011;31824;49.648;8.640;2023-08-21T16:34:50;1.50;;;0.80;;
46086;SDS011;31824;49.648;8.640;2023-08-21T16:37:51;1.40;;;0.68;;
46086;SDS011;31824;49.648;8.640;2023-08-21T16:40:54;1.88;;;0.70;;
46086;SDS011;31824;49.648;8.640;2023-08-21T16:43:56;1.85;;;0.80;;
46086;SDS011;31824;49.648;8.640;2023-08-21T16:46:59;1.58;;;0.85;;
46086;SDS011;31824;49.648;8.640;2023-08-21T16:50:00;1.65;;;0.70;;
46086;SDS011;31824;49.648;8.640;2023-08-21T16:53:04;4.00;;;1.05;;
46086;SDS011;31824;49.648;8.640;2023-08-21T16:56:24;1.95;;;0.80;;
46086;SDS011;31824;49.648;8.640;2023-08-21T17:02:28;1.20;;;0.75;;
46086;SDS011;31824;49.648;8.640;2023-08-21T17:05:30;1.55;;;0.80;;
46086;SDS011;31824;49.648;8.640;2023-08-21T17:08:32;2.05;;;0.98;;
46086;SDS011;31824;49.648;8.640;2023-08-21T17:11:35;1.55;;;0.82;;
46086;SDS011;31824;49.648;8.640;2023-08-21T17:14:36;5.15;;;2.50;;
46086;SDS011;31824;49.648;8.640;2023-08-21T17:17:38;3.25;;;1.15;;
46086;SDS011;31824;49.648;8.640;2023-08-21T17:20:41;4.40;;;1.40;;
46086;SDS011;31824;49.648;8.640;2023-08-21T17:23:42;2.53;;;0.90;;
46086;SDS011;31824;49.648;8.640;2023-08-21T17:26:45;2.10;;;0.90;;
46086;SDS011;31824;49.648;8.640;2023-08-21T17:29:47;1.77;;;0.80;;
46086;SDS011;31824;49.648;8.640;2023-08-21T17:32:50;1.40;;;0.70;;
46086;SDS011;31824;49.648;8.640;2023-08-21T17:35:52;1.77;;;0.80;;
46086;SDS011;31824;49.648;8.640;2023-08-21T17:38:53;2.72;;;0.88;;
46086;SDS011;31824;49.648;8.640;2023-08-21T17:41:56;1.77;;;1.00;;
46086;SDS011;31824;49.648;8.640;2023-08-21T17:44:58;1.85;;;0.82;;
46086;SDS011;31824;49.648;8.640;2023-08-21T17:48:00;2.83;;;0.90;;
46086;SDS011;31824;49.648;8.640;2023-08-21T17:51:02;2.15;;;0.90;;
46086;SDS011;31824;49.648;8.640;2023-08-21T17:54:06;1.67;;;0.85;;
46086;SDS011;31824;49.648;8.640;2023-08-21T17:57:09;3.03;;;1.20;;
46086;SDS011;31824;49.648;8.640;2023-08-21T18:00:11;2.90;;;1.40;;
46086;SDS011;31824;49.648;8.640;2023-08-21T18:03:13;2.60;;;1.00;;
46086;SDS011;31824;49.648;8.640;2023-08-21T18:06:15;3.67;;;1.10;;
46086;SDS011;31824;49.648;8.640;2023-08-21T18:09:19;2.97;;;1.20;;
46086;SDS011;31824;49.648;8.640;2023-08-21T18:12:23;2.58;;;1.23;;
46086;SDS011;31824;49.648;8.640;2023-08-21T18:15:24;1.95;;;1.08;;
46086;SDS011;31824;49.648;8.640;2023-08-21T18:18:27;1.90;;;1.00;;
46086;SDS011;31824;49.648;8.640;2023-08-21T18:21:31;1.73;;;0.63;;
46086;SDS011;31824;49.648;8.640;2023-08-21T18:24:33;1.88;;;0.75;;
46086;SDS011;31824;49.648;8.640;2023-08-21T18:27:36;1.45;;;0.75;;
46086;SDS011;31824;49.648;8.640;2023-08-21T18:30:39;3.33;;;0.90;;
46086;SDS011;31824;49.648;8.640;2023-08-21T18:33:41;2.55;;;1.10;;
46086;SDS011;31824;49.648;8.640;2023-08-21T18:36:43;3.78;;;0.88;;
46086;SDS011;31824;49.648;8.640;2023-08-21T18:39:45;3.70;;;1.20;;